createdAt,value
2018-09-05T00:00:41.445Z,1019.74
2018-09-05T00:01:51.292Z,1019.79
2018-09-05T00:03:01.139Z,1019.76
2018-09-05T00:04:10.987Z,1019.74
2018-09-05T00:05:21.256Z,1019.74
2018-09-05T00:06:30.833Z,1019.74
2018-09-05T00:07:40.673Z,1019.74
2018-09-05T00:08:50.789Z,1019.72
2018-09-05T00:10:00.103Z,1019.72
2018-09-05T00:11:09.676Z,1019.73
2018-09-05T00:12:19.796Z,1019.71
2018-09-05T00:13:29.636Z,1019.72
2018-09-05T00:14:39.210Z,1019.74
2018-09-05T00:15:48.780Z,1019.71
2018-09-05T00:16:58.329Z,1019.69
2018-09-05T00:18:07.366Z,1019.65
2018-09-05T00:19:16.670Z,1019.64
2018-09-05T00:20:25.982Z,1019.61
2018-09-05T00:21:35.561Z,1019.6
2018-09-05T00:22:45.285Z,1019.63
2018-09-05T00:23:55.395Z,1019.61
2018-09-05T00:25:04.698Z,1019.59
2018-09-05T00:26:14.537Z,1019.59
2018-09-05T00:27:24.651Z,1019.6
2018-09-05T00:28:34.745Z,1019.56
2018-09-05T00:29:44.318Z,1019.55
2018-09-05T00:30:53.886Z,1019.49
2018-09-05T00:32:03.731Z,1019.52
2018-09-05T00:33:13.572Z,1019.53
2018-09-05T00:34:23.144Z,1019.55
2018-09-05T00:35:32.718Z,1019.57
2018-09-05T00:36:42.031Z,1019.54
2018-09-05T00:37:51.601Z,1019.55
2018-09-05T00:39:01.758Z,1019.53
2018-09-05T00:40:11.380Z,1019.54
2018-09-05T00:41:21.495Z,1019.53
2018-09-05T00:42:31.066Z,1019.53
2018-09-05T00:43:41.182Z,1019.56
2018-09-05T00:44:51.292Z,1019.54
2018-09-05T00:46:01.337Z,1019.53
2018-09-05T00:47:10.906Z,1019.56
2018-09-05T00:48:20.757Z,1019.53
2018-09-05T00:49:30.605Z,1019.49
2018-09-05T00:50:40.451Z,1019.52
2018-09-05T00:51:50.071Z,1019.5
2018-09-05T00:52:59.909Z,1019.51
2018-09-05T00:54:09.763Z,1019.49
2018-09-05T00:55:19.068Z,1019.53
2018-09-05T00:56:28.101Z,1019.54
2018-09-05T00:57:37.949Z,1019.55
2018-09-05T00:58:47.529Z,1019.55
2018-09-05T00:59:57.649Z,1019.51
2018-09-05T01:01:06.688Z,1019.53
2018-09-05T01:02:16.261Z,1019.54
2018-09-05T01:03:26.430Z,1019.51
2018-09-05T01:04:36.280Z,1019.48
2018-09-05T01:05:45.582Z,1019.5
2018-09-05T01:06:55.160Z,1019.53
2018-09-05T01:08:05.003Z,1019.49
2018-09-05T01:09:14.627Z,1019.53
2018-09-05T01:10:24.211Z,1019.52
2018-09-05T01:11:33.784Z,1019.5
2018-09-05T01:12:43.623Z,1019.44
2018-09-05T01:13:53.212Z,1019.49
2018-09-05T01:15:03.343Z,1019.48
2018-09-05T01:16:12.647Z,1019.46
2018-09-05T01:17:22.494Z,1019.45
2018-09-05T01:18:31.533Z,1019.41
2018-09-05T01:19:41.111Z,1019.4
2018-09-05T01:20:50.954Z,1019.39
2018-09-05T01:22:00.580Z,1019.37
2018-09-05T01:23:10.693Z,1019.38
2018-09-05T01:24:20.635Z,1019.36
2018-09-05T01:25:30.785Z,1019.37
2018-09-05T01:26:40.624Z,1019.38
2018-09-05T01:27:50.738Z,1019.34
2018-09-05T01:29:00.858Z,1019.35
2018-09-05T01:30:10.434Z,1019.36
2018-09-05T01:31:19.998Z,1019.36
2018-09-05T01:32:29.301Z,1019.37
2018-09-05T01:33:39.151Z,1019.36
2018-09-05T01:34:49.287Z,1019.37
2018-09-05T01:35:58.865Z,1019.38
2018-09-05T01:37:08.440Z,1019.37
2018-09-05T01:38:18.022Z,1019.36
2018-09-05T01:39:27.864Z,1019.39
2018-09-05T01:40:37.704Z,1019.35
2018-09-05T01:41:47.813Z,1019.39
2018-09-05T01:42:57.387Z,1019.38
2018-09-05T01:44:07.493Z,1019.4
2018-09-05T01:45:17.064Z,1019.41
2018-09-05T01:46:27.176Z,1019.48
2018-09-05T01:47:36.757Z,1019.46
2018-09-05T01:48:45.790Z,1019.45
2018-09-05T01:49:55.616Z,1019.44
2018-09-05T01:51:05.729Z,1019.47
2018-09-05T01:52:15.576Z,1019.46
2018-09-05T01:53:25.143Z,1019.45
2018-09-05T01:54:34.721Z,1019.46
2018-09-05T01:55:44.022Z,1019.46
2018-09-05T01:56:53.857Z,1019.45
2018-09-05T01:58:03.159Z,1019.45
2018-09-05T01:59:13.266Z,1019.45
2018-09-05T02:00:23.105Z,1019.47
2018-09-05T02:01:33.462Z,1019.44
2018-09-05T02:02:43.307Z,1019.42
2018-09-05T02:03:52.613Z,1019.44
2018-09-05T02:05:01.924Z,1019.42
2018-09-05T02:06:11.229Z,1019.42
2018-09-05T02:07:21.344Z,1019.39
2018-09-05T02:08:30.673Z,1019.39
2018-09-05T02:09:40.645Z,1019.32
2018-09-05T02:10:50.484Z,1019.38
2018-09-05T02:12:00.337Z,1019.34
2018-09-05T02:13:10.455Z,1019.35
2018-09-05T02:14:20.299Z,1019.34
2018-09-05T02:15:29.905Z,1019.36
2018-09-05T02:16:39.478Z,1019.34
2018-09-05T02:17:49.645Z,1019.41
2018-09-05T02:18:59.954Z,1019.32
2018-09-05T02:20:09.803Z,1019.34
2018-09-05T02:21:19.373Z,1019.33
2018-09-05T02:22:29.492Z,1019.28
2018-09-05T02:23:38.787Z,1019.28
2018-09-05T02:24:48.636Z,1019.28
2018-09-05T02:25:58.484Z,1019.24
2018-09-05T02:27:08.336Z,1019.25
2018-09-05T02:28:17.640Z,1019.25
2018-09-05T02:29:27.221Z,1019.22
2018-09-05T02:30:36.540Z,1019.26
2018-09-05T02:31:46.402Z,1019.26
2018-09-05T02:32:56.512Z,1019.31
2018-09-05T02:34:06.083Z,1019.32
2018-09-05T02:35:15.391Z,1019.29
2018-09-05T02:36:25.755Z,1019.32
2018-09-05T02:37:35.327Z,1019.32
2018-09-05T02:38:45.172Z,1019.32
2018-09-05T02:39:54.747Z,1019.27
2018-09-05T02:41:04.052Z,1019.26
2018-09-05T02:42:13.958Z,1019.23
2018-09-05T02:43:24.073Z,1019.24
2018-09-05T02:44:33.921Z,1019.27
2018-09-05T02:45:43.495Z,1019.26
2018-09-05T02:46:53.074Z,1019.22
2018-09-05T02:48:02.927Z,1019.23
2018-09-05T02:49:12.769Z,1019.26
2018-09-05T02:50:22.612Z,1019.21
2018-09-05T02:51:32.188Z,1019.25
2018-09-05T02:52:42.044Z,1019.27
2018-09-05T02:53:51.620Z,1019.27
2018-09-05T02:55:01.470Z,1019.27
2018-09-05T02:56:10.768Z,1019.28
2018-09-05T02:57:20.349Z,1019.26
2018-09-05T02:58:30.188Z,1019.29
2018-09-05T02:59:40.055Z,1019.24
2018-09-05T03:00:50.174Z,1019.26
2018-09-05T03:01:59.470Z,1019.22
2018-09-05T03:03:09.310Z,1019.2
2018-09-05T03:04:19.156Z,1019.19
2018-09-05T03:05:28.885Z,1019.21
2018-09-05T03:06:38.458Z,1019.21
2018-09-05T03:07:48.581Z,1019.22
2018-09-05T03:08:58.428Z,1019.2
2018-09-05T03:10:08.280Z,1019.26
2018-09-05T03:11:18.126Z,1019.27
2018-09-05T03:12:28.239Z,1019.25
2018-09-05T03:13:38.073Z,1019.29
2018-09-05T03:14:47.657Z,1019.25
2018-09-05T03:15:57.241Z,1019.27
2018-09-05T03:17:06.865Z,1019.26
2018-09-05T03:18:16.979Z,1019.25
2018-09-05T03:19:26.824Z,1019.26
2018-09-05T03:20:36.666Z,1019.25
2018-09-05T03:21:46.244Z,1019.27
2018-09-05T03:22:56.089Z,1019.25
2018-09-05T03:24:05.658Z,1019.21
2018-09-05T03:25:15.515Z,1019.17
2018-09-05T03:26:25.363Z,1019.22
2018-09-05T03:27:34.938Z,1019.25
2018-09-05T03:28:44.592Z,1019.25
2018-09-05T03:29:54.716Z,1019.3
2018-09-05T03:31:04.555Z,1019.28
2018-09-05T03:32:14.562Z,1019.28
2018-09-05T03:33:25.751Z,1019.3
2018-09-05T03:34:35.758Z,1019.31
2018-09-05T03:35:45.600Z,1019.34
2018-09-05T03:36:55.444Z,1019.35
2018-09-05T03:38:04.481Z,1019.35
2018-09-05T03:39:14.326Z,1019.35
2018-09-05T03:40:23.960Z,1019.36
2018-09-05T03:41:33.802Z,1019.38
2018-09-05T03:42:43.387Z,1019.39
2018-09-05T03:43:52.700Z,1019.37
2018-09-05T03:45:01.996Z,1019.39
2018-09-05T03:46:11.635Z,1019.33
2018-09-05T03:47:21.747Z,1019.37
2018-09-05T03:48:30.792Z,1019.36
2018-09-05T03:49:40.430Z,1019.41
2018-09-05T03:50:50.919Z,1019.36
2018-09-05T03:52:00.775Z,1019.39
2018-09-05T03:53:10.350Z,1019.4
2018-09-05T03:54:20.204Z,1019.43
2018-09-05T03:55:30.046Z,1019.39
2018-09-05T03:56:39.893Z,1019.4
2018-09-05T03:57:49.997Z,1019.37
2018-09-05T03:58:59.842Z,1019.39
2018-09-05T04:00:09.691Z,1019.38
2018-09-05T04:01:19.532Z,1019.38
2018-09-05T04:02:29.106Z,1019.4
2018-09-05T04:03:39.267Z,1019.42
2018-09-05T04:04:49.390Z,1019.39
2018-09-05T04:05:59.348Z,1019.41
2018-09-05T04:07:08.925Z,1019.4
2018-09-05T04:08:18.767Z,1019.37
2018-09-05T04:09:28.343Z,1019.38
2018-09-05T04:10:37.918Z,1019.41
2018-09-05T04:11:47.758Z,1019.36
2018-09-05T04:12:57.338Z,1019.41
2018-09-05T04:14:07.187Z,1019.39
2018-09-05T04:15:17.357Z,1019.35
2018-09-05T04:16:26.656Z,1019.36
2018-09-05T04:17:36.789Z,1019.34
2018-09-05T04:18:46.908Z,1019.39
2018-09-05T04:19:56.491Z,1019.35
2018-09-05T04:21:06.342Z,1019.39
2018-09-05T04:22:15.646Z,1019.38
2018-09-05T04:23:24.960Z,1019.36
2018-09-05T04:24:34.799Z,1019.4
2018-09-05T04:25:44.914Z,1019.39
2018-09-05T04:26:54.761Z,1019.36
2018-09-05T04:28:04.337Z,1019.37
2018-09-05T04:29:13.639Z,1019.42
2018-09-05T04:30:24.038Z,1019.4
2018-09-05T04:31:33.886Z,1019.43
2018-09-05T04:32:43.442Z,1019.45
2018-09-05T04:33:53.279Z,1019.46
2018-09-05T04:35:02.584Z,1019.42
2018-09-05T04:36:12.154Z,1019.45
2018-09-05T04:37:21.994Z,1019.45
2018-09-05T04:38:31.834Z,1019.41
2018-09-05T04:39:41.683Z,1019.44
2018-09-05T04:40:50.713Z,1019.42
2018-09-05T04:42:00.550Z,1019.45
2018-09-05T04:43:10.666Z,1019.46
2018-09-05T04:44:20.518Z,1019.44
2018-09-05T04:45:30.096Z,1019.46
2018-09-05T04:46:39.945Z,1019.44
2018-09-05T04:47:50.071Z,1019.43
2018-09-05T04:49:00.191Z,1019.47
2018-09-05T04:50:09.778Z,1019.48
2018-09-05T04:51:19.902Z,1019.47
2018-09-05T04:52:29.804Z,1019.45
2018-09-05T04:53:40.065Z,1019.42
2018-09-05T04:54:49.638Z,1019.44
2018-09-05T04:55:59.804Z,1019.43
2018-09-05T04:57:09.659Z,1019.41
2018-09-05T04:58:19.532Z,1019.42
2018-09-05T04:59:30.106Z,1019.48
2018-09-05T05:00:39.974Z,1019.45
2018-09-05T05:01:49.823Z,1019.51
2018-09-05T05:02:59.676Z,1019.49
2018-09-05T05:04:08.984Z,1019.51
2018-09-05T05:05:18.861Z,1019.51
2018-09-05T05:06:28.944Z,1019.56
2018-09-05T05:07:39.218Z,1019.57
2018-09-05T05:08:49.065Z,1019.54
2018-09-05T05:09:58.906Z,1019.57
2018-09-05T05:11:08.751Z,1019.62
2018-09-05T05:12:18.595Z,1019.61
2018-09-05T05:13:28.568Z,1019.63
2018-09-05T05:14:38.683Z,1019.66
2018-09-05T05:15:47.990Z,1019.67
2018-09-05T05:16:57.908Z,1019.65
2018-09-05T05:18:07.773Z,1019.66
2018-09-05T05:19:17.625Z,1019.7
2018-09-05T05:20:27.197Z,1019.7
2018-09-05T05:21:36.768Z,1019.73
2018-09-05T05:22:46.618Z,1019.7
2018-09-05T05:23:56.454Z,1019.69
2018-09-05T05:25:06.590Z,1019.69
2018-09-05T05:26:16.171Z,1019.69
2018-09-05T05:27:26.024Z,1019.66
2018-09-05T05:28:36.135Z,1019.71
2018-09-05T05:29:45.440Z,1019.66
2018-09-05T05:30:55.556Z,1019.7
2018-09-05T05:32:05.692Z,1019.74
2018-09-05T05:33:15.268Z,1019.71
2018-09-05T05:34:24.570Z,1019.72
2018-09-05T05:35:33.875Z,1019.7
2018-09-05T05:36:43.731Z,1019.72
2018-09-05T05:37:53.854Z,1019.73
2018-09-05T05:39:03.696Z,1019.72
2018-09-05T05:40:13.339Z,1019.76
2018-09-05T05:41:23.207Z,1019.72
2018-09-05T05:42:32.781Z,1019.75
2018-09-05T05:43:42.092Z,1019.76
2018-09-05T05:44:51.672Z,1019.76
2018-09-05T05:46:01.525Z,1019.76
2018-09-05T05:47:11.371Z,1019.87
2018-09-05T05:48:21.267Z,1019.84
2018-09-05T05:49:31.114Z,1019.84
2018-09-05T05:50:40.683Z,1019.85
2018-09-05T05:51:50.788Z,1019.87
2018-09-05T05:53:00.362Z,1019.91
2018-09-05T05:54:09.935Z,1019.92
2018-09-05T05:55:19.790Z,1019.97
2018-09-05T05:56:29.096Z,1019.96
2018-09-05T05:57:38.994Z,1019.96
2018-09-05T05:58:48.891Z,1020.01
2018-09-05T05:59:58.729Z,1019.99
2018-09-05T06:01:07.780Z,1020.02
2018-09-05T06:02:18.171Z,1020.03
2018-09-05T06:03:28.023Z,1020.04
2018-09-05T06:04:37.599Z,1020.04
2018-09-05T06:05:47.446Z,1020.02
2018-09-05T06:06:57.905Z,1020.03
2018-09-05T06:08:06.944Z,1020.04
2018-09-05T06:09:16.799Z,1020.08
2018-09-05T06:10:26.102Z,1020.11
2018-09-05T06:11:36.224Z,1020.15
2018-09-05T06:12:46.076Z,1020.13
2018-09-05T06:13:55.922Z,1020.12
2018-09-05T06:15:05.222Z,1020.13
2018-09-05T06:16:15.332Z,1020.2
2018-09-05T06:17:24.904Z,1020.17
2018-09-05T06:18:34.608Z,1020.17
2018-09-05T06:19:43.908Z,1020.22
2018-09-05T06:20:53.214Z,1020.2
2018-09-05T06:22:02.541Z,1020.24
2018-09-05T06:23:12.163Z,1020.24
2018-09-05T06:24:22.337Z,1020.26
2018-09-05T06:25:32.182Z,1020.28
2018-09-05T06:26:41.764Z,1020.27
2018-09-05T06:27:51.280Z,1020.31
2018-09-05T06:29:00.330Z,1020.27
2018-09-05T06:30:10.177Z,1020.3
2018-09-05T06:31:19.946Z,1020.33
2018-09-05T06:32:29.866Z,1020.34
2018-09-05T06:33:39.176Z,1020.34
2018-09-05T06:34:49.541Z,1020.32
2018-09-05T06:35:59.116Z,1020.38
2018-09-05T06:37:09.010Z,1020.35
2018-09-05T06:38:18.855Z,1020.37
2018-09-05T06:39:29.006Z,1020.37
2018-09-05T06:40:39.272Z,1020.39
2018-09-05T06:41:49.119Z,1020.38
2018-09-05T06:42:58.965Z,1020.38
2018-09-05T06:44:08.884Z,1020.36
2018-09-05T06:45:18.754Z,1020.41
2018-09-05T06:46:28.892Z,1020.36
2018-09-05T06:47:38.746Z,1020.36
2018-09-05T06:48:48.858Z,1020.4
2018-09-05T06:49:58.699Z,1020.35
2018-09-05T06:51:08.539Z,1020.32
2018-09-05T06:52:18.563Z,1020.31
2018-09-05T06:53:28.424Z,1020.28
2018-09-05T06:54:38.259Z,1020.31
2018-09-05T06:55:47.838Z,1020.37
2018-09-05T06:56:57.418Z,1020.35
2018-09-05T06:58:07.039Z,1020.33
2018-09-05T06:59:17.475Z,1020.34
2018-09-05T07:00:26.774Z,1020.32
2018-09-05T07:01:36.346Z,1020.28
2018-09-05T07:02:45.923Z,1020.28
2018-09-05T07:03:55.948Z,1020.3
2018-09-05T07:05:06.163Z,1020.35
2018-09-05T07:06:15.741Z,1020.35
2018-09-05T07:07:25.316Z,1020.36
2018-09-05T07:08:35.432Z,1020.35
2018-09-05T07:09:45.699Z,1020.34
2018-09-05T07:10:55.670Z,1020.34
2018-09-05T07:12:04.975Z,1020.4
2018-09-05T07:13:14.817Z,1020.4
2018-09-05T07:14:24.188Z,1020.4
2018-09-05T07:15:34.456Z,1020.39
2018-09-05T07:16:44.296Z,1020.4
2018-09-05T07:17:53.329Z,1020.39
2018-09-05T07:19:03.177Z,1020.38
2018-09-05T07:20:13.032Z,1020.36
2018-09-05T07:21:22.669Z,1020.38
2018-09-05T07:22:33.584Z,1020.41
2018-09-05T07:23:43.165Z,1020.38
2018-09-05T07:24:52.820Z,1020.4
2018-09-05T07:26:03.375Z,1020.37
2018-09-05T07:27:13.752Z,1020.4
2018-09-05T07:28:23.998Z,1020.39
2018-09-05T07:29:34.119Z,1020.37
2018-09-05T07:30:44.036Z,1020.4
2018-09-05T07:31:54.532Z,1020.46
2018-09-05T07:33:04.161Z,1020.42
2018-09-05T07:34:13.466Z,1020.48
2018-09-05T07:35:23.046Z,1020.43
2018-09-05T07:36:32.987Z,1020.47
2018-09-05T07:37:42.832Z,1020.48
2018-09-05T07:38:52.944Z,1020.44
2018-09-05T07:40:02.248Z,1020.49
2018-09-05T07:41:11.821Z,1020.45
2018-09-05T07:42:21.393Z,1020.46
2018-09-05T07:43:31.262Z,1020.48
2018-09-05T07:44:41.249Z,1020.46
2018-09-05T07:45:50.831Z,1020.46
2018-09-05T07:47:00.941Z,1020.44
2018-09-05T07:48:11.055Z,1020.49
2018-09-05T07:49:20.910Z,1020.5
2018-09-05T07:50:31.044Z,1020.47
2018-09-05T07:51:41.091Z,1020.47
2018-09-05T07:52:51.205Z,1020.47
2018-09-05T07:54:01.327Z,1020.45
2018-09-05T07:55:10.360Z,1020.48
2018-09-05T07:56:20.480Z,1020.46
2018-09-05T07:57:30.326Z,1020.48
2018-09-05T07:58:40.441Z,1020.49
2018-09-05T07:59:50.294Z,1020.48
2018-09-05T08:01:00.137Z,1020.48
2018-09-05T08:02:09.715Z,1020.48
2018-09-05T08:03:19.296Z,1020.49
2018-09-05T08:04:28.877Z,1020.46
2018-09-05T08:05:38.724Z,1020.43
2018-09-05T08:06:48.572Z,1020.4
2018-09-05T08:07:57.622Z,1020.44
2018-09-05T08:09:07.733Z,1020.47
2018-09-05T08:10:17.877Z,1020.45
2018-09-05T08:11:26.911Z,1020.47
2018-09-05T08:12:36.567Z,1020.48
2018-09-05T08:13:46.460Z,1020.46
2018-09-05T08:14:56.311Z,1020.5
2018-09-05T08:16:05.884Z,1020.46
2018-09-05T08:17:15.732Z,1020.5
2018-09-05T08:18:25.929Z,1020.45
2018-09-05T08:19:36.043Z,1020.46
2018-09-05T08:20:45.644Z,1020.43
2018-09-05T08:21:55.222Z,1020.44
2018-09-05T08:23:04.528Z,1020.43
2018-09-05T08:24:14.157Z,1020.43
2018-09-05T08:25:24.178Z,1020.46
2018-09-05T08:26:34.025Z,1020.41
2018-09-05T08:27:43.868Z,1020.44
2018-09-05T08:28:53.515Z,1020.43
2018-09-05T08:30:03.756Z,1020.42
2018-09-05T08:31:14.039Z,1020.42
2018-09-05T08:32:23.885Z,1020.43
2018-09-05T08:33:33.726Z,1020.43
2018-09-05T08:34:43.628Z,1020.39
2018-09-05T08:35:55.018Z,1020.37
2018-09-05T08:37:07.665Z,1020.38
2018-09-05T08:38:19.262Z,1020.33
2018-09-05T08:39:30.442Z,1020.37
2018-09-05T08:40:40.080Z,1020.34
2018-09-05T08:41:49.189Z,1020.34
2018-09-05T08:42:59.532Z,1020.29
2018-09-05T08:44:09.160Z,1020.28
2018-09-05T08:45:20.541Z,1020.27
2018-09-05T08:46:31.763Z,1020.26
2018-09-05T08:47:42.040Z,1020.25
2018-09-05T08:48:52.573Z,1020.31
2018-09-05T08:50:01.957Z,1020.3
2018-09-05T08:51:11.901Z,1020.3
2018-09-05T08:52:21.207Z,1020.36
2018-09-05T08:53:31.330Z,1020.33
2018-09-05T08:54:40.940Z,1020.33
2018-09-05T08:55:50.805Z,1020.31
2018-09-05T08:57:00.185Z,1020.36
2018-09-05T08:58:09.866Z,1020.32
2018-09-05T08:59:19.729Z,1020.33
2018-09-05T09:00:29.579Z,1020.34
2018-09-05T09:01:39.450Z,1020.31
2018-09-05T09:02:49.335Z,1020.33
2018-09-05T09:03:59.612Z,1020.33
2018-09-05T09:05:09.327Z,1020.34
2018-09-05T09:06:18.939Z,1020.36
2018-09-05T09:07:28.522Z,1020.36
2018-09-05T09:08:38.091Z,1020.35
2018-09-05T09:09:47.940Z,1020.38
2018-09-05T09:10:57.527Z,1020.39
2018-09-05T09:12:07.643Z,1020.41
2018-09-05T09:13:17.541Z,1020.4
2018-09-05T09:14:27.670Z,1020.38
2018-09-05T09:15:37.246Z,1020.37
2018-09-05T09:16:46.551Z,1020.37
2018-09-05T09:17:56.134Z,1020.38
2018-09-05T09:19:05.436Z,1020.37
2018-09-05T09:20:14.740Z,1020.39
2018-09-05T09:21:24.593Z,1020.36
2018-09-05T09:22:34.167Z,1020.34
2018-09-05T09:23:44.011Z,1020.33
2018-09-05T09:24:53.588Z,1020.36
2018-09-05T09:26:03.437Z,1020.35
2018-09-05T09:27:13.559Z,1020.31
2018-09-05T09:28:22.988Z,1020.37
2018-09-05T09:29:33.261Z,1020.32
2018-09-05T09:30:42.833Z,1020.31
2018-09-05T09:31:52.947Z,1020.3
2018-09-05T09:33:02.253Z,1020.35
2018-09-05T09:34:12.372Z,1020.32
2018-09-05T09:35:22.336Z,1020.34
2018-09-05T09:36:32.117Z,1020.34
2018-09-05T09:37:41.704Z,1020.3
2018-09-05T09:38:51.546Z,1020.32
2018-09-05T09:40:01.392Z,1020.27
2018-09-05T09:41:10.960Z,1020.31
2018-09-05T09:42:20.538Z,1020.3
2018-09-05T09:43:30.389Z,1020.3
2018-09-05T09:44:39.741Z,1020.29
2018-09-05T09:45:49.902Z,1020.33
2018-09-05T09:46:59.752Z,1020.25
2018-09-05T09:48:09.868Z,1020.25
2018-09-05T09:49:19.986Z,1020.26
2018-09-05T09:50:30.133Z,1020.23
2018-09-05T09:51:39.697Z,1020.23
2018-09-05T09:52:49.546Z,1020.25
2018-09-05T09:53:58.854Z,1020.3
2018-09-05T09:55:08.430Z,1020.25
2018-09-05T09:56:18.561Z,1020.23
2018-09-05T09:57:28.413Z,1020.2
2018-09-05T09:58:37.991Z,1020.23
2018-09-05T09:59:47.843Z,1020.22
2018-09-05T10:00:57.423Z,1020.23
2018-09-05T10:02:07.294Z,1020.22
2018-09-05T10:03:16.960Z,1020.19
2018-09-05T10:04:27.738Z,1020.16
2018-09-05T10:05:37.369Z,1020.14
2018-09-05T10:06:47.035Z,1020.15
2018-09-05T10:07:57.214Z,1020.15
2018-09-05T10:09:06.789Z,1020.14
2018-09-05T10:10:16.824Z,1020.11
2018-09-05T10:11:27.413Z,1020.18
2018-09-05T10:12:36.727Z,1020.08
2018-09-05T10:13:46.293Z,1020.09
2018-09-05T10:14:56.154Z,1020.1
2018-09-05T10:16:06.102Z,1020.07
2018-09-05T10:17:15.946Z,1020.01
2018-09-05T10:18:25.519Z,1020.04
2018-09-05T10:19:35.649Z,1020.05
2018-09-05T10:20:45.496Z,1020.07
2018-09-05T10:21:55.507Z,1020
2018-09-05T10:23:05.357Z,1020.01
2018-09-05T10:24:15.202Z,1019.99
2018-09-05T10:25:24.777Z,1020.05
2018-09-05T10:26:34.356Z,1020.02
2018-09-05T10:27:44.479Z,1019.97
2018-09-05T10:28:53.789Z,1020.04
2018-09-05T10:30:03.901Z,1019.97
2018-09-05T10:31:13.744Z,1019.99
2018-09-05T10:32:23.317Z,1019.99
2018-09-05T10:33:33.167Z,1019.99
2018-09-05T10:34:42.748Z,1019.98
2018-09-05T10:35:52.322Z,1019.94
2018-09-05T10:37:02.166Z,1019.87
2018-09-05T10:38:11.470Z,1019.94
2018-09-05T10:39:21.365Z,1019.92
2018-09-05T10:40:31.208Z,1019.91
2018-09-05T10:41:40.783Z,1019.87
2018-09-05T10:42:50.359Z,1019.79
2018-09-05T10:43:59.945Z,1019.8
2018-09-05T10:45:09.325Z,1019.82
2018-09-05T10:46:18.637Z,1019.87
2018-09-05T10:47:28.757Z,1019.78
2018-09-05T10:48:37.790Z,1019.8
2018-09-05T10:49:47.910Z,1019.78
2018-09-05T10:50:57.800Z,1019.72
2018-09-05T10:52:07.438Z,1019.71
2018-09-05T10:53:17.290Z,1019.65
2018-09-05T10:54:27.140Z,1019.68
2018-09-05T10:55:36.984Z,1019.62
2018-09-05T10:56:46.570Z,1019.64
2018-09-05T10:57:56.436Z,1019.64
2018-09-05T10:59:06.880Z,1019.59
2018-09-05T11:00:16.859Z,1019.6
2018-09-05T11:01:26.199Z,1019.6
2018-09-05T11:02:36.088Z,1019.61
2018-09-05T11:03:45.980Z,1019.6
2018-09-05T11:04:56.172Z,1019.59
2018-09-05T11:06:06.066Z,1019.6
2018-09-05T11:07:15.910Z,1019.56
2018-09-05T11:08:25.403Z,1019.6
2018-09-05T11:09:35.510Z,1019.64
2018-09-05T11:10:45.521Z,1019.61
2018-09-05T11:11:55.760Z,1019.61
2018-09-05T11:13:05.880Z,1019.57
2018-09-05T11:14:15.506Z,1019.58
2018-09-05T11:15:25.363Z,1019.57
2018-09-05T11:16:35.506Z,1019.53
2018-09-05T11:17:45.623Z,1019.52
2018-09-05T11:18:55.742Z,1019.56
2018-09-05T11:20:05.595Z,1019.55
2018-09-05T11:21:15.508Z,1019.45
2018-09-05T11:22:25.555Z,1019.48
2018-09-05T11:23:35.414Z,1019.5
2018-09-05T11:24:45.537Z,1019.52
2018-09-05T11:25:55.393Z,1019.51
2018-09-05T11:27:05.514Z,1019.5
2018-09-05T11:28:15.372Z,1019.53
2018-09-05T11:29:24.954Z,1019.59
2018-09-05T11:30:34.256Z,1019.55
2018-09-05T11:31:43.891Z,1019.53
2018-09-05T11:32:52.931Z,1019.47
2018-09-05T11:34:02.522Z,1019.51
2018-09-05T11:35:12.424Z,1019.55
2018-09-05T11:36:22.627Z,1019.51
2018-09-05T11:37:32.489Z,1019.48
2018-09-05T11:38:42.434Z,1019.46
2018-09-05T11:39:52.012Z,1019.47
2018-09-05T11:41:01.321Z,1019.45
2018-09-05T11:42:11.496Z,1019.41
2018-09-05T11:43:21.354Z,1019.4
2018-09-05T11:44:30.489Z,1019.46
2018-09-05T11:45:40.091Z,1019.46
2018-09-05T11:46:50.259Z,1019.46
2018-09-05T11:48:00.389Z,1019.41
2018-09-05T11:49:09.996Z,1019.41
2018-09-05T11:50:20.140Z,1019.32
2018-09-05T11:51:29.860Z,1019.4
2018-09-05T11:52:39.989Z,1019.46
2018-09-05T11:53:49.907Z,1019.45
2018-09-05T11:54:59.834Z,1019.46
2018-09-05T11:56:09.172Z,1019.5
2018-09-05T11:57:19.428Z,1019.52
2018-09-05T11:58:29.126Z,1019.51
2018-09-05T11:59:38.969Z,1019.5
2018-09-05T12:00:48.555Z,1019.47
2018-09-05T12:01:58.675Z,1019.45
2018-09-05T12:03:08.274Z,1019.5
2018-09-05T12:04:18.390Z,1019.5
2018-09-05T12:05:27.698Z,1019.48
2018-09-05T12:06:37.554Z,1019.46
2018-09-05T12:07:47.702Z,1019.49
2018-09-05T12:08:57.010Z,1019.5
2018-09-05T12:10:06.591Z,1019.45
2018-09-05T12:11:16.199Z,1019.42
2018-09-05T12:12:26.323Z,1019.44
2018-09-05T12:13:35.925Z,1019.47
2018-09-05T12:14:45.561Z,1019.47
2018-09-05T12:15:55.411Z,1019.48
2018-09-05T12:17:04.725Z,1019.5
2018-09-05T12:18:14.584Z,1019.49
2018-09-05T12:19:23.620Z,1019.49
2018-09-05T12:20:33.234Z,1019.45
2018-09-05T12:21:42.813Z,1019.45
2018-09-05T12:22:52.932Z,1019.44
2018-09-05T12:24:03.052Z,1019.42
2018-09-05T12:25:12.905Z,1019.4
2018-09-05T12:26:23.035Z,1019.4
2018-09-05T12:27:32.616Z,1019.44
2018-09-05T12:28:42.465Z,1019.43
2018-09-05T12:29:52.583Z,1019.4
2018-09-05T12:31:01.894Z,1019.41
2018-09-05T12:32:11.210Z,1019.4
2018-09-05T12:33:21.345Z,1019.4
2018-09-05T12:34:30.930Z,1019.39
2018-09-05T12:35:40.291Z,1019.37
2018-09-05T12:36:50.424Z,1019.35
2018-09-05T12:38:00.267Z,1019.35
2018-09-05T12:39:10.147Z,1019.36
2018-09-05T12:40:20.311Z,1019.34
2018-09-05T12:41:30.225Z,1019.34
2018-09-05T12:42:40.122Z,1019.33
2018-09-05T12:43:49.967Z,1019.25
2018-09-05T12:44:59.275Z,1019.16
2018-09-05T12:46:08.856Z,1019.2
2018-09-05T12:47:18.482Z,1019.22
2018-09-05T12:48:28.344Z,1019.19
2018-09-05T12:49:37.957Z,1019.18
2018-09-05T12:50:47.548Z,1019.16
2018-09-05T12:51:56.863Z,1019.16
2018-09-05T12:53:06.171Z,1019.16
2018-09-05T12:54:16.021Z,1019.17
2018-09-05T12:55:26.193Z,1019.15
2018-09-05T12:56:36.044Z,1019.17
2018-09-05T12:57:46.168Z,1019.21
2018-09-05T12:58:56.021Z,1019.2
2018-09-05T13:00:05.872Z,1019.14
2018-09-05T13:01:16.001Z,1019.11
2018-09-05T13:02:25.852Z,1019.1
2018-09-05T13:03:35.699Z,1019.1
2018-09-05T13:04:45.548Z,1019.1
2018-09-05T13:05:55.445Z,1019.09
2018-09-05T13:07:04.750Z,1019.06
2018-09-05T13:08:14.322Z,1019.07
2018-09-05T13:09:24.452Z,1019.08
2018-09-05T13:10:34.308Z,1019.04
2018-09-05T13:11:44.169Z,1019.07
2018-09-05T13:12:53.753Z,1019.04
2018-09-05T13:14:03.611Z,1019.06
2018-09-05T13:15:13.196Z,1019.06
2018-09-05T13:16:23.335Z,1019.02
2018-09-05T13:17:33.190Z,1018.99
2018-09-05T13:18:42.774Z,1018.99
2018-09-05T13:19:52.351Z,1018.99
2018-09-05T13:21:02.472Z,1019.02
2018-09-05T13:22:12.057Z,1018.97
2018-09-05T13:23:21.906Z,1018.97
2018-09-05T13:24:32.019Z,1018.94
2018-09-05T13:25:41.598Z,1018.85
2018-09-05T13:26:51.515Z,1018.85
2018-09-05T13:28:00.960Z,1018.85
2018-09-05T13:29:10.530Z,1018.88
2018-09-05T13:30:19.889Z,1018.84
2018-09-05T13:31:30.019Z,1018.83
2018-09-05T13:32:39.596Z,1018.8
2018-09-05T13:33:48.918Z,1018.75
2018-09-05T13:34:58.492Z,1018.74
2018-09-05T13:36:08.345Z,1018.73
2018-09-05T13:37:17.656Z,1018.74
2018-09-05T13:38:27.783Z,1018.71
2018-09-05T13:39:37.645Z,1018.72
2018-09-05T13:40:47.488Z,1018.7
2018-09-05T13:41:57.621Z,1018.72
2018-09-05T13:43:07.746Z,1018.75
2018-09-05T13:44:17.326Z,1018.69
2018-09-05T13:45:27.445Z,1018.77
2018-09-05T13:46:37.557Z,1018.71
2018-09-05T13:47:47.408Z,1018.69
2018-09-05T13:48:56.722Z,1018.73
2018-09-05T13:50:06.304Z,1018.76
2018-09-05T13:51:16.475Z,1018.75
2018-09-05T13:52:26.603Z,1018.75
2018-09-05T13:53:36.457Z,1018.73
2018-09-05T13:54:45.769Z,1018.77
2018-09-05T13:55:55.622Z,1018.68
2018-09-05T13:57:05.741Z,1018.7
2018-09-05T13:58:15.594Z,1018.69
2018-09-05T13:59:25.170Z,1018.65
2018-09-05T14:00:34.477Z,1018.66
2018-09-05T14:01:44.611Z,1018.64
2018-09-05T14:02:54.294Z,1018.62
2018-09-05T14:04:04.243Z,1018.62
2018-09-05T14:05:14.111Z,1018.67
2018-09-05T14:06:23.969Z,1018.66
2018-09-05T14:07:33.553Z,1018.64